Time;durP1;ratioP1;P1;durP2;ratioP2;P2;SDS_P1;SDS_P2;PMS_P1;PMS_P2;Temp;Humidity;BMP_temperature;BMP_pressure;BME280_temperature;BME280_humidity;BME280_pressure;Samples;Min_cycle;Max_cycle;Signal;HPM_P1;HPM_P2
2023/10/26 04:00:56;;;;;;;1.30;0.70;;;11.60;85.30;;;;;;5877347;23;20931;-78
2023/10/26 04:03:23;;;;;;;1.30;0.70;;;11.50;85.70;;;;;;4995216;28;20484;-75
2023/10/26 04:05:49;;;;;;;1.67;0.80;;;11.50;85.60;;;;;;4995373;28;20477;-75
2023/10/26 04:08:16;;;;;;;1.60;0.90;;;11.50;85.90;;;;;;4995091;28;20856;-75
2023/10/26 04:10:43;;;;;;;1.40;0.80;;;11.50;85.70;;;;;;4995429;28;20465;-75
2023/10/26 04:13:11;;;;;;;1.93;0.90;;;11.50;86.10;;;;;;4995793;28;20453;-75
2023/10/26 04:15:38;;;;;;;1.53;0.87;;;11.60;86.00;;;;;;4994889;28;20477;-75
2023/10/26 04:18:06;;;;;;;2.73;0.97;;;11.60;85.80;;;;;;4995471;28;20452;-75
2023/10/26 04:20:33;;;;;;;2.67;1.00;;;11.50;85.70;;;;;;4994738;28;20818;-75
2023/10/26 04:23:00;;;;;;;1.30;0.70;;;11.50;85.70;;;;;;4995114;28;20449;-75
2023/10/26 04:25:28;;;;;;;1.20;0.70;;;11.50;85.90;;;;;;4994942;28;20445;-75
2023/10/26 04:27:55;;;;;;;1.20;0.70;;;11.40;86.70;;;;;;4995012;28;20503;-75
2023/10/26 04:30:22;;;;;;;2.03;0.90;;;11.40;86.90;;;;;;4994591;28;20489;-75
2023/10/26 04:32:50;;;;;;;1.53;0.80;;;11.50;86.60;;;;;;4994929;28;20441;-76
2023/10/26 04:35:18;;;;;;;3.37;0.90;;;11.70;86.00;;;;;;4994909;28;20445;-78
2023/10/26 04:37:44;;;;;;;1.20;0.70;;;11.70;85.80;;;;;;4994888;28;20441;-76
2023/10/26 04:40:12;;;;;;;1.33;0.77;;;11.80;85.40;;;;;;4994875;28;20449;-76
2023/10/26 04:42:38;;;;;;;1.30;0.80;;;11.80;85.20;;;;;;4994566;28;20468;-76
2023/10/26 04:45:06;;;;;;;1.27;0.70;;;11.90;84.70;;;;;;4994643;28;20445;-76
2023/10/26 04:47:32;;;;;;;1.20;0.70;;;11.90;84.70;;;;;;4994558;28;20489;-76
2023/10/26 04:49:59;;;;;;;1.20;0.70;;;11.80;84.30;;;;;;4994830;28;20449;-76
2023/10/26 04:52:27;;;;;;;1.20;0.70;;;11.70;84.10;;;;;;4994775;28;20478;-76
2023/10/26 04:54:54;;;;;;;1.50;1.20;;;11.70;84.90;;;;;;4994893;28;20452;-76
2023/10/26 04:57:20;;;;;;;1.57;0.70;;;11.70;84.70;;;;;;4994838;28;20452;-76
2023/10/26 04:59:47;;;;;;;1.50;0.80;;;11.70;84.70;;;;;;4994920;28;20452;-76
2023/10/26 05:02:14;;;;;;;2.43;0.77;;;11.60;84.60;;;;;;4994105;28;20503;-75
2023/10/26 05:04:40;;;;;;;2.23;0.90;;;11.60;85.70;;;;;;4994997;28;20452;-76
2023/10/26 05:07:07;;;;;;;1.60;0.90;;;11.70;85.40;;;;;;4994665;28;21020;-75
2023/10/26 05:09:35;;;;;;;1.30;0.70;;;11.80;85.10;;;;;;4994421;28;20997;-76
2023/10/26 05:12:02;;;;;;;1.47;0.87;;;11.70;84.60;;;;;;4994989;28;20475;-76
2023/10/26 05:14:29;;;;;;;1.20;0.70;;;11.70;85.20;;;;;;4995722;28;20441;-77
2023/10/26 05:16:55;;;;;;;1.30;0.70;;;11.80;84.90;;;;;;4994372;28;20962;-75
2023/10/26 05:19:22;;;;;;;1.40;0.80;;;11.90;85.10;;;;;;4994084;28;20821;-75
2023/10/26 05:21:49;;;;;;;1.57;0.77;;;11.90;85.00;;;;;;4994164;28;20465;-75
2023/10/26 05:24:15;;;;;;;1.20;0.70;;;12.00;84.90;;;;;;4994214;28;20445;-75
2023/10/26 05:26:43;;;;;;;1.60;0.80;;;12.10;84.60;;;;;;4993778;28;20485;-75
2023/10/26 05:29:10;;;;;;;1.57;0.70;;;12.20;84.60;;;;;;4994101;28;20456;-75
2023/10/26 05:31:36;;;;;;;1.70;0.80;;;12.20;84.20;;;;;;5005115;28;20467;-75
2023/10/26 05:34:03;;;;;;;1.40;0.80;;;12.20;84.30;;;;;;5010547;28;20452;-76
2023/10/26 05:36:30;;;;;;;1.73;0.90;;;12.20;83.90;;;;;;4997440;28;20448;-76
2023/10/26 05:38:56;;;;;;;1.90;0.90;;;12.20;84.40;;;;;;4995830;28;20504;-75
2023/10/26 05:41:23;;;;;;;1.67;0.90;;;12.10;84.30;;;;;;4994122;28;20468;-75
2023/10/26 05:43:51;;;;;;;1.70;0.80;;;12.20;84.50;;;;;;4994047;28;20453;-75
2023/10/26 05:46:18;;;;;;;1.50;0.80;;;12.10;84.80;;;;;;4993843;28;20480;-75
2023/10/26 05:48:45;;;;;;;1.20;0.80;;;12.20;84.60;;;;;;4994072;28;20851;-76
2023/10/26 05:51:12;;;;;;;1.40;0.70;;;12.30;84.60;;;;;;4993835;28;20461;-75
2023/10/26 05:53:38;;;;;;;1.90;0.80;;;12.20;84.90;;;;;;4994412;28;20610;-75
2023/10/26 05:56:05;;;;;;;1.30;0.77;;;12.20;84.70;;;;;;4993605;28;20930;-75
2023/10/26 05:58:32;;;;;;;1.50;0.80;;;12.20;85.10;;;;;;4993426;28;20980;-75
2023/10/26 06:01:00;;;;;;;1.50;0.83;;;12.30;85.10;;;;;;4993585;28;20476;-75
2023/10/26 06:03:27;;;;;;;1.70;0.90;;;12.40;84.70;;;;;;4993806;28;20430;-75
2023/10/26 06:05:59;;;;;;;1.90;0.73;;;12.30;84.60;;;;;;4993428;28;20448;-75
2023/10/26 06:08:26;;;;;;;1.50;0.80;;;12.10;85.00;;;;;;4993794;28;20472;-75
2023/10/26 06:10:52;;;;;;;2.50;0.80;;;12.10;85.30;;;;;;4993818;28;20464;-75
2023/10/26 06:13:19;;;;;;;1.30;0.80;;;12.20;85.60;;;;;;4993741;28;20500;-76
2023/10/26 06:15:46;;;;;;;1.20;0.80;;;12.30;85.40;;;;;;4993722;28;20453;-75
2023/10/26 06:18:14;;;;;;;1.40;0.80;;;12.20;85.70;;;;;;4994384;28;20840;-76
2023/10/26 06:20:41;;;;;;;1.67;0.87;;;12.20;85.60;;;;;;4993657;28;20456;-76
2023/10/26 06:23:08;;;;;;;1.33;0.80;;;12.20;86.00;;;;;;4993557;28;20447;-76
2023/10/26 06:25:35;;;;;;;1.60;0.80;;;12.10;86.10;;;;;;4993672;28;20496;-76
2023/10/26 06:28:02;;;;;;;1.87;1.00;;;12.10;86.40;;;;;;4993439;28;20485;-76
2023/10/26 06:30:30;;;;;;;1.50;0.77;;;12.10;86.60;;;;;;4993420;28;20480;-75
2023/10/26 06:32:58;;;;;;;1.50;0.80;;;12.10;86.30;;;;;;4993073;28;20943;-75
2023/10/26 06:35:27;;;;;;;1.30;0.73;;;12.10;86.90;;;;;;4993399;28;20453;-76
2023/10/26 06:37:53;;;;;;;1.40;0.80;;;12.20;87.00;;;;;;4994003;28;20441;-73
2023/10/26 06:40:20;;;;;;;1.50;0.80;;;12.20;87.80;;;;;;4997060;28;20440;-75
2023/10/26 06:42:47;;;;;;;3.03;0.93;;;12.30;87.20;;;;;;4996889;28;20990;-76
2023/10/26 06:45:13;;;;;;;1.70;1.07;;;12.20;87.00;;;;;;4996704;28;20853;-74
2023/10/26 06:47:40;;;;;;;1.37;0.80;;;12.20;87.20;;;;;;4996753;28;20485;-75
2023/10/26 06:50:08;;;;;;;1.70;1.00;;;12.30;87.10;;;;;;4996927;28;20449;-75
2023/10/26 06:52:36;;;;;;;1.20;0.70;;;12.20;87.00;;;;;;4996777;28;20464;-75
2023/10/26 06:55:02;;;;;;;2.23;0.77;;;12.20;87.40;;;;;;4997228;28;20445;-75
2023/10/26 06:57:32;;;;;;;1.40;0.73;;;12.30;87.70;;;;;;4997002;28;20446;-74
2023/10/26 06:59:59;;;;;;;1.20;0.70;;;12.40;87.50;;;;;;4996458;28;20830;-75
2023/10/26 07:02:26;;;;;;;1.90;1.00;;;12.30;87.00;;;;;;4996263;28;20564;-73
2023/10/26 07:04:53;;;;;;;1.47;0.80;;;12.40;87.50;;;;;;4997449;28;20444;-75
2023/10/26 07:07:19;;;;;;;1.70;0.80;;;12.50;87.60;;;;;;4996809;28;20481;-75
2023/10/26 07:09:48;;;;;;;1.93;1.10;;;12.50;87.10;;;;;;4996530;28;20519;-75
2023/10/26 07:12:15;;;;;;;1.20;0.73;;;12.40;87.10;;;;;;4996550;28;20469;-75
2023/10/26 07:14:41;;;;;;;1.40;0.80;;;12.40;87.40;;;;;;4996499;28;20441;-75
2023/10/26 07:17:08;;;;;;;1.20;0.70;;;12.30;87.50;;;;;;4996492;28;20437;-75
2023/10/26 07:19:35;;;;;;;1.60;0.70;;;12.40;88.20;;;;;;4996486;28;20452;-74
2023/10/26 07:22:02;;;;;;;1.40;0.70;;;12.40;88.40;;;;;;4996337;28;20476;-74
2023/10/26 07:24:30;;;;;;;1.50;0.80;;;12.50;88.10;;;;;;4996501;28;20452;-74
2023/10/26 07:26:58;;;;;;;1.87;1.00;;;12.40;87.90;;;;;;4996281;28;20531;-75
2023/10/26 07:29:25;;;;;;;2.17;0.87;;;12.40;88.30;;;;;;4996276;28;20449;-73
2023/10/26 07:31:51;;;;;;;1.30;0.80;;;12.50;88.50;;;;;;4996218;28;20548;-75
2023/10/26 07:34:18;;;;;;;1.30;0.70;;;12.60;88.30;;;;;;4996104;28;20449;-75
2023/10/26 07:36:45;;;;;;;1.30;0.80;;;12.70;87.90;;;;;;4996166;28;20445;-75
2023/10/26 07:39:11;;;;;;;1.33;0.90;;;12.60;87.70;;;;;;4996045;28;20449;-74
2023/10/26 07:41:38;;;;;;;1.50;0.90;;;12.60;87.90;;;;;;4995962;28;20465;-75
2023/10/26 07:44:06;;;;;;;1.43;0.90;;;12.60;88.10;;;;;;4996096;28;20503;-74
2023/10/26 07:46:33;;;;;;;1.80;1.10;;;12.70;88.20;;;;;;4995575;28;20448;-75
2023/10/26 07:49:00;;;;;;;2.37;1.30;;;12.80;87.80;;;;;;4995584;28;20965;-77
2023/10/26 07:51:27;;;;;;;1.80;1.20;;;12.90;88.10;;;;;;4995841;28;20465;-75
2023/10/26 07:53:53;;;;;;;1.40;1.00;;;12.90;87.30;;;;;;4995909;28;20446;-73
2023/10/26 07:56:29;;;;;;;1.53;0.90;;;12.90;88.00;;;;;;4995694;28;20822;-75
2023/10/26 07:58:55;;;;;;;1.40;0.93;;;12.80;87.90;;;;;;4996244;28;20460;-76
2023/10/26 08:01:23;;;;;;;1.40;0.90;;;12.90;88.60;;;;;;4995959;28;20986;-72
2023/10/26 08:03:50;;;;;;;1.30;0.80;;;12.90;88.40;;;;;;4996006;28;20445;-74
2023/10/26 08:06:17;;;;;;;1.50;0.90;;;12.90;88.10;;;;;;4995912;28;20444;-74
2023/10/26 08:08:43;;;;;;;1.40;0.83;;;13.00;88.10;;;;;;4995782;28;20493;-74
2023/10/26 08:11:13;;;;;;;1.83;0.87;;;13.00;88.30;;;;;;4995509;28;21057;-75
2023/10/26 08:13:41;;;;;;;1.23;0.70;;;12.90;88.60;;;;;;4996230;28;20433;-75
2023/10/26 08:16:08;;;;;;;2.47;1.33;;;12.90;88.50;;;;;;4995690;28;20487;-76
2023/10/26 08:18:36;;;;;;;1.70;1.10;;;12.90;89.00;;;;;;4995487;28;20468;-75
2023/10/26 08:21:05;;;;;;;2.13;1.00;;;12.90;88.60;;;;;;4995523;28;20479;-76
2023/10/26 08:23:32;;;;;;;1.40;0.80;;;12.90;89.00;;;;;;4995317;28;20882;-74
2023/10/26 08:26:06;;;;;;;1.97;1.13;;;12.90;88.90;;;;;;4995600;28;20544;-75
2023/10/26 08:28:33;;;;;;;2.10;1.30;;;12.90;89.20;;;;;;4995567;28;20588;-74
2023/10/26 08:31:00;;;;;;;1.20;0.70;;;12.80;90.20;;;;;;4995145;28;20492;-75
2023/10/26 08:33:27;;;;;;;1.50;0.80;;;12.80;89.40;;;;;;4995233;28;20453;-75
2023/10/26 08:35:55;;;;;;;1.40;1.00;;;12.80;89.40;;;;;;4994974;28;20807;-76
2023/10/26 08:38:22;;;;;;;1.50;0.90;;;12.90;89.80;;;;;;4995198;28;20791;-75
2023/10/26 08:40:53;;;;;;;1.27;0.70;;;12.90;89.30;;;;;;4994773;28;20896;-75
2023/10/26 08:43:22;;;;;;;1.43;0.70;;;12.90;89.00;;;;;;4995392;28;20436;-75
2023/10/26 08:45:49;;;;;;;1.53;0.70;;;13.10;89.20;;;;;;4994888;28;20449;-75
2023/10/26 08:48:17;;;;;;;1.50;0.90;;;12.90;89.40;;;;;;4994544;28;20507;-75
2023/10/26 08:50:45;;;;;;;1.77;0.90;;;13.00;90.00;;;;;;4994688;28;20807;-75
2023/10/26 08:53:13;;;;;;;1.87;0.80;;;13.00;89.30;;;;;;4995041;28;20441;-75
2023/10/26 08:55:41;;;;;;;1.20;0.80;;;13.00;89.40;;;;;;4995353;28;20448;-75
2023/10/26 08:58:08;;;;;;;1.20;0.70;;;13.00;89.70;;;;;;4995280;28;20479;-75
2023/10/26 09:00:37;;;;;;;2.50;1.00;;;13.20;89.90;;;;;;4994534;28;20545;-75
2023/10/26 09:03:04;;;;;;;1.37;0.77;;;13.20;89.60;;;;;;4994839;28;20456;-75
2023/10/26 09:05:31;;;;;;;1.73;1.10;;;13.10;89.40;;;;;;4995186;28;20452;-75
2023/10/26 09:07:58;;;;;;;1.27;0.70;;;13.20;89.60;;;;;;4994868;28;20489;-75
2023/10/26 09:10:33;;;;;;;1.60;0.80;;;13.10;89.90;;;;;;4996416;28;20456;-73
2023/10/26 09:13:01;;;;;;;1.30;0.80;;;13.10;90.10;;;;;;4995001;28;20429;-75
2023/10/26 09:15:28;;;;;;;1.93;0.90;;;13.10;90.20;;;;;;4994763;28;20448;-75
2023/10/26 09:17:57;;;;;;;1.93;0.87;;;13.00;90.30;;;;;;4994972;28;20496;-75
2023/10/26 09:20:26;;;;;;;1.23;0.73;;;12.80;90.90;;;;;;4994848;28;20445;-75
2023/10/26 09:22:52;;;;;;;1.57;1.00;;;12.80;91.60;;;;;;4994937;28;20499;-75
2023/10/26 09:25:19;;;;;;;1.70;0.90;;;12.50;92.50;;;;;;4994331;28;20445;-75
2023/10/26 09:27:47;;;;;;;2.17;1.00;;;12.60;93.10;;;;;;4994538;28;20476;-75
2023/10/26 09:30:25;;;;;;;3.40;1.07;;;12.80;92.50;;;;;;4994663;28;20457;-75
2023/10/26 09:32:52;;;;;;;2.03;1.10;;;12.80;92.10;;;;;;4993899;28;20440;-75
2023/10/26 09:35:26;;;;;;;2.17;1.47;;;12.80;92.90;;;;;;4994432;28;20965;-75
2023/10/26 09:37:52;;;;;;;1.70;1.00;;;12.90;92.80;;;;;;4995144;28;20453;-75
2023/10/26 09:40:20;;;;;;;1.30;0.90;;;12.90;92.20;;;;;;4994961;28;20483;-75
2023/10/26 09:42:49;;;;;;;2.00;1.17;;;13.00;92.50;;;;;;4994742;28;20468;-75
2023/10/26 09:45:18;;;;;;;2.17;1.30;;;12.90;92.00;;;;;;4994997;28;20468;-75
2023/10/26 09:47:45;;;;;;;1.70;1.20;;;12.60;93.20;;;;;;4995042;28;20512;-75
2023/10/26 09:50:13;;;;;;;1.83;1.00;;;12.70;93.50;;;;;;4994675;28;20444;-75
2023/10/26 09:52:42;;;;;;;1.60;0.97;;;12.80;93.40;;;;;;4993765;28;21011;-75
2023/10/26 09:55:10;;;;;;;1.40;0.90;;;12.80;92.80;;;;;;4995052;28;20859;-75
2023/10/26 09:57:43;;;;;;;1.70;1.00;;;12.80;93.00;;;;;;4994311;28;20472;-75
2023/10/26 10:00:13;;;;;;;1.40;0.90;;;12.80;92.50;;;;;;4994627;28;20488;-75
2023/10/26 10:02:40;;;;;;;1.63;1.00;;;12.70;93.10;;;;;;4994629;28;20489;-75
2023/10/26 10:05:07;;;;;;;1.60;0.90;;;12.50;93.70;;;;;;4994677;28;20536;-75
2023/10/26 10:07:44;;;;;;;1.80;0.90;;;12.50;94.40;;;;;;4994811;28;20484;-75
2023/10/26 10:10:12;;;;;;;1.40;0.90;;;12.70;94.10;;;;;;4994218;28;20659;-75
2023/10/26 10:12:40;;;;;;;1.50;1.20;;;12.40;94.20;;;;;;4995352;28;20562;-75
2023/10/26 10:15:09;;;;;;;1.40;0.80;;;12.50;94.70;;;;;;4998301;28;20527;-74
2023/10/26 10:18:18;;;;;;;1.30;0.90;;;12.50;95.00;;;;;;4998764;28;20451;-74
2023/10/26 10:20:46;;;;;;;1.40;0.87;;;12.60;94.90;;;;;;4989046;28;20500;-75
2023/10/26 10:23:29;;;;;;;1.30;0.87;;;12.90;94.70;;;;;;4998299;28;20477;-75
2023/10/26 10:26:02;;;;;;;1.37;0.80;;;13.00;94.00;;;;;;4997525;28;20911;-75
2023/10/26 10:28:41;;;;;;;2.13;0.70;;;13.10;93.60;;;;;;4997781;28;20567;-75
2023/10/26 10:31:09;;;;;;;1.10;0.60;;;13.30;93.10;;;;;;4997415;28;20531;-76
2023/10/26 10:33:39;;;;;;;1.30;0.77;;;13.50;92.70;;;;;;4997093;28;21013;-76
2023/10/26 10:36:43;;;;;;;1.30;0.80;;;13.60;92.70;;;;;;4999037;28;20429;-77
2023/10/26 10:39:23;;;;;;;1.30;0.80;;;13.80;92.30;;;;;;4995171;28;20441;-77
2023/10/26 10:41:51;;;;;;;1.30;0.80;;;14.00;91.60;;;;;;4998657;28;20476;-76
2023/10/26 10:44:18;;;;;;;1.60;0.90;;;14.10;90.80;;;;;;4997636;28;20445;-76
2023/10/26 10:46:48;;;;;;;1.50;1.00;;;14.10;90.40;;;;;;4997868;28;20449;-77
2023/10/26 10:49:16;;;;;;;1.60;1.00;;;14.20;90.40;;;;;;4997465;28;20522;-74
2023/10/26 10:51:44;;;;;;;2.00;0.90;;;14.30;90.30;;;;;;4997664;28;20465;-74
2023/10/26 10:54:12;;;;;;;1.27;0.80;;;14.30;90.00;;;;;;4997063;28;20494;-76
2023/10/26 10:56:42;;;;;;;1.30;0.80;;;14.20;90.00;;;;;;4996875;28;20441;-76
2023/10/26 10:59:20;;;;;;;2.07;0.83;;;14.20;91.00;;;;;;4997187;28;20437;-76
2023/10/26 11:01:47;;;;;;;1.60;1.10;;;14.30;90.50;;;;;;4996649;28;20484;-75
2023/10/26 11:04:14;;;;;;;1.70;1.03;;;14.40;90.40;;;;;;4997099;28;20452;-76
2023/10/26 11:06:45;;;;;;;1.80;1.10;;;14.50;90.40;;;;;;4996764;28;20449;-77
2023/10/26 11:09:26;;;;;;;2.00;0.80;;;14.70;90.10;;;;;;4996637;28;20539;-76
2023/10/26 11:11:55;;;;;;;1.20;0.77;;;14.80;89.50;;;;;;4996908;28;20465;-77
2023/10/26 11:14:22;;;;;;;1.20;0.60;;;14.90;89.50;;;;;;4996516;28;20452;-76
2023/10/26 11:16:51;;;;;;;1.40;0.73;;;15.00;88.80;;;;;;4997002;28;20458;-75
2023/10/26 11:19:17;;;;;;;1.30;0.70;;;15.00;88.60;;;;;;4996664;28;20446;-76
2023/10/26 11:21:44;;;;;;;1.23;0.70;;;15.10;88.60;;;;;;4996625;28;20601;-76
2023/10/26 11:24:11;;;;;;;2.27;0.80;;;15.20;88.40;;;;;;4996458;28;20449;-76
2023/10/26 11:26:39;;;;;;;1.40;0.70;;;15.20;88.40;;;;;;4996577;28;20449;-75
2023/10/26 11:29:17;;;;;;;1.30;0.70;;;15.30;88.00;;;;;;4996099;28;20477;-76
2023/10/26 11:31:44;;;;;;;1.20;0.70;;;15.30;88.00;;;;;;4996261;28;20465;-75
2023/10/26 11:34:11;;;;;;;1.30;0.90;;;15.30;88.10;;;;;;4996117;28;20448;-77
2023/10/26 11:36:38;;;;;;;1.20;0.70;;;15.40;87.90;;;;;;4996010;28;20448;-76
2023/10/26 11:39:06;;;;;;;1.20;0.70;;;15.40;87.90;;;;;;4995974;28;20441;-76
2023/10/26 11:41:34;;;;;;;1.20;0.70;;;15.50;88.20;;;;;;4995682;28;21020;-76
2023/10/26 11:44:01;;;;;;;1.17;0.67;;;15.60;88.10;;;;;;4996439;28;20449;-76
2023/10/26 11:46:34;;;;;;;1.30;0.80;;;15.50;88.30;;;;;;4996112;28;20888;-75
2023/10/26 11:49:02;;;;;;;1.30;0.80;;;15.60;88.30;;;;;;4995944;28;20492;-77
2023/10/26 11:51:29;;;;;;;1.20;0.70;;;15.80;88.50;;;;;;4995477;28;20981;-75
2023/10/26 11:53:56;;;;;;;1.40;0.70;;;16.00;88.30;;;;;;4995822;28;20449;-76
2023/10/26 11:56:23;;;;;;;1.40;0.80;;;16.10;86.80;;;;;;4995271;28;20842;-76
2023/10/26 11:58:50;;;;;;;1.27;0.73;;;16.30;86.80;;;;;;4995561;28;20449;-77
2023/10/26 12:01:16;;;;;;;1.30;0.70;;;16.60;86.70;;;;;;4995203;28;20905;-76
2023/10/26 12:03:45;;;;;;;1.20;0.70;;;16.70;85.70;;;;;;4996946;28;20448;-77
2023/10/26 12:06:13;;;;;;;1.60;0.90;;;16.60;85.60;;;;;;4996149;28;20496;-76
2023/10/26 12:08:39;;;;;;;1.30;0.70;;;16.80;84.80;;;;;;4997226;28;20524;-75
2023/10/26 12:11:06;;;;;;;1.67;0.83;;;17.00;84.50;;;;;;4996002;28;20477;-76
2023/10/26 12:13:34;;;;;;;1.20;0.60;;;17.30;83.70;;;;;;4995895;28;20826;-77
2023/10/26 12:16:01;;;;;;;1.60;0.60;;;17.80;82.40;;;;;;4996278;28;20518;-75
2023/10/26 12:18:27;;;;;;;1.13;0.60;;;17.60;82.80;;;;;;4996098;28;20441;-75
2023/10/26 12:20:56;;;;;;;1.20;0.67;;;17.70;81.60;;;;;;4996060;28;20469;-76
2023/10/26 12:23:22;;;;;;;1.30;0.70;;;17.10;82.90;;;;;;4996157;28;20444;-76
2023/10/26 12:25:49;;;;;;;1.17;0.70;;;17.10;83.50;;;;;;4996165;28;20452;-76
2023/10/26 12:28:17;;;;;;;1.20;0.70;;;17.10;83.70;;;;;;4996814;28;20476;-75
2023/10/26 12:30:45;;;;;;;1.40;0.80;;;17.40;84.10;;;;;;4996768;28;20469;-76
2023/10/26 12:33:11;;;;;;;1.40;0.70;;;17.80;83.30;;;;;;4995599;28;20476;-75
2023/10/26 12:35:38;;;;;;;1.43;0.90;;;18.30;83.10;;;;;;4994628;28;20445;-75
2023/10/26 12:38:06;;;;;;;1.13;0.60;;;18.40;81.30;;;;;;4995162;28;20433;-76
2023/10/26 12:40:33;;;;;;;1.60;0.80;;;18.60;80.50;;;;;;4995259;28;20837;-77
2023/10/26 12:43:00;;;;;;;1.10;0.60;;;18.30;80.40;;;;;;4995279;28;20449;-76
2023/10/26 12:45:26;;;;;;;1.20;0.60;;;18.50;80.70;;;;;;4995512;28;20441;-76
2023/10/26 12:47:53;;;;;;;1.60;0.80;;;18.90;79.80;;;;;;4995625;28;20452;-76
2023/10/26 12:50:20;;;;;;;1.30;0.70;;;19.10;78.50;;;;;;4995345;28;20520;-76
2023/10/26 12:52:47;;;;;;;1.30;0.70;;;19.10;78.50;;;;;;4995015;28;20465;-76
2023/10/26 12:55:15;;;;;;;1.37;0.90;;;19.00;78.40;;;;;;4995091;28;20544;-75
2023/10/26 12:57:43;;;;;;;1.33;0.83;;;19.10;79.50;;;;;;4995303;28;20951;-77
2023/10/26 13:00:10;;;;;;;1.20;0.70;;;19.00;78.80;;;;;;4995285;28;20453;-77
2023/10/26 13:02:37;;;;;;;1.73;0.80;;;18.70;78.30;;;;;;4994796;28;20509;-75
2023/10/26 13:05:04;;;;;;;1.20;0.80;;;18.50;80.20;;;;;;4995763;28;20445;-76
2023/10/26 13:07:31;;;;;;;1.50;0.80;;;18.60;80.30;;;;;;4997561;28;20448;-75
2023/10/26 13:09:58;;;;;;;1.73;1.07;;;18.80;78.90;;;;;;4994703;28;20489;-75
2023/10/26 13:12:26;;;;;;;1.30;0.70;;;18.60;79.30;;;;;;4994537;28;20505;-73
2023/10/26 13:14:53;;;;;;;1.60;1.00;;;18.40;80.40;;;;;;4994725;28;20445;-77
2023/10/26 13:17:19;;;;;;;1.30;0.70;;;18.30;80.60;;;;;;4994594;28;20445;-76
2023/10/26 13:19:46;;;;;;;1.20;0.80;;;17.90;81.90;;;;;;4994656;28;20445;-75
2023/10/26 13:22:13;;;;;;;1.40;0.80;;;17.70;82.80;;;;;;4994596;28;20564;-77
2023/10/26 13:24:39;;;;;;;1.20;0.70;;;17.60;83.00;;;;;;4994226;28;20817;-76
2023/10/26 13:27:06;;;;;;;2.37;1.00;;;17.50;83.60;;;;;;4994334;28;20453;-76
2023/10/26 13:29:34;;;;;;;1.80;0.90;;;17.30;83.70;;;;;;4994568;28;20480;-74
2023/10/26 13:32:01;;;;;;;2.33;1.00;;;16.80;83.80;;;;;;4994770;28;20461;-76
2023/10/26 13:34:27;;;;;;;2.33;0.90;;;16.60;85.70;;;;;;4994781;28;20445;-76
2023/10/26 13:36:54;;;;;;;2.90;1.10;;;16.50;85.40;;;;;;4994606;28;20444;-76
2023/10/26 13:39:21;;;;;;;2.73;1.10;;;16.50;85.70;;;;;;4994353;28;20441;-77
2023/10/26 13:41:48;;;;;;;2.43;1.07;;;16.50;86.00;;;;;;4993882;28;20508;-75
2023/10/26 13:44:15;;;;;;;1.80;0.97;;;16.50;85.80;;;;;;4994224;28;20449;-76
2023/10/26 13:46:43;;;;;;;2.97;1.33;;;16.50;85.90;;;;;;4994125;28;20441;-76
2023/10/26 13:49:11;;;;;;;2.60;1.50;;;16.50;85.60;;;;;;4998244;28;20481;-76
2023/10/26 13:51:38;;;;;;;2.20;1.50;;;16.30;85.20;;;;;;4998133;28;20572;-75
2023/10/26 13:54:05;;;;;;;4.90;1.63;;;16.40;85.10;;;;;;4998268;28;20445;-74
2023/10/26 13:56:33;;;;;;;2.30;1.30;;;16.20;85.20;;;;;;4998065;28;20441;-75
2023/10/26 13:59:00;;;;;;;2.23;1.27;;;16.40;86.10;;;;;;4998026;28;20809;-77
2023/10/26 14:01:27;;;;;;;2.60;1.40;;;16.40;86.60;;;;;;4998310;28;20498;-74
2023/10/26 14:03:55;;;;;;;2.03;1.07;;;16.20;85.20;;;;;;4998732;28;20453;-76
2023/10/26 14:06:24;;;;;;;2.27;1.20;;;16.20;86.20;;;;;;4997779;28;20934;-76
2023/10/26 14:08:51;;;;;;;2.23;1.40;;;16.10;85.60;;;;;;4997887;28;20517;-76
2023/10/26 14:11:18;;;;;;;4.97;2.00;;;15.90;85.70;;;;;;4997443;28;20874;-77
2023/10/26 14:13:45;;;;;;;3.20;1.50;;;15.90;85.90;;;;;;4997900;28;20452;-76
2023/10/26 14:16:12;;;;;;;1.90;1.20;;;15.80;86.30;;;;;;4997962;28;20445;-77
2023/10/26 14:18:38;;;;;;;2.60;1.20;;;15.60;85.80;;;;;;4997765;28;20869;-76
2023/10/26 14:21:06;;;;;;;2.67;1.13;;;15.40;86.00;;;;;;4997534;28;20465;-75
2023/10/26 14:23:33;;;;;;;1.70;1.10;;;15.40;86.40;;;;;;4997745;28;20452;-76
2023/10/26 14:26:01;;;;;;;3.27;1.10;;;15.40;86.40;;;;;;4997359;28;20444;-78
2023/10/26 14:28:27;;;;;;;2.37;1.00;;;15.30;86.10;;;;;;4997249;28;20481;-76
2023/10/26 14:30:54;;;;;;;1.90;1.03;;;15.30;86.60;;;;;;4997308;28;20472;-77
2023/10/26 14:33:21;;;;;;;1.90;1.00;;;15.30;87.10;;;;;;4997840;28;20445;-76
2023/10/26 14:35:50;;;;;;;2.87;1.40;;;15.40;87.00;;;;;;4997618;28;20451;-77
2023/10/26 14:38:18;;;;;;;1.93;1.00;;;15.30;87.70;;;;;;4997569;28;20468;-76
2023/10/26 14:40:46;;;;;;;1.80;1.10;;;15.30;87.00;;;;;;4997346;28;20461;-75
2023/10/26 14:43:13;;;;;;;5.10;1.43;;;15.20;86.30;;;;;;4997404;28;20942;-76
2023/10/26 14:45:40;;;;;;;2.57;1.20;;;15.20;86.10;;;;;;4998370;28;20453;-75
2023/10/26 14:48:07;;;;;;;2.63;1.23;;;15.20;86.60;;;;;;4997541;28;20441;-75
2023/10/26 14:50:34;;;;;;;2.03;0.93;;;15.30;86.60;;;;;;4997300;28;20500;-76
2023/10/26 14:53:00;;;;;;;2.33;1.20;;;15.40;86.50;;;;;;4997956;28;20484;-76
2023/10/26 14:55:28;;;;;;;4.20;1.70;;;15.30;85.30;;;;;;4997190;28;20447;-75
2023/10/26 14:57:55;;;;;;;1.60;1.00;;;15.20;84.90;;;;;;4997475;28;20456;-77
2023/10/26 15:00:22;;;;;;;1.70;1.00;;;15.20;85.20;;;;;;4996344;28;20452;-77
2023/10/26 15:02:49;;;;;;;2.47;1.30;;;15.20;85.80;;;;;;4996698;28;20900;-76
2023/10/26 15:05:16;;;;;;;3.00;1.50;;;15.20;84.80;;;;;;4996924;28;20449;-76
2023/10/26 15:07:43;;;;;;;1.73;1.07;;;15.20;83.60;;;;;;4996764;28;20453;-77
2023/10/26 15:10:09;;;;;;;2.03;1.13;;;15.10;83.60;;;;;;4996904;28;20563;-76
2023/10/26 15:12:39;;;;;;;2.23;1.10;;;15.00;83.50;;;;;;4996756;28;20465;-77
2023/10/26 15:15:06;;;;;;;1.80;1.00;;;15.00;83.50;;;;;;4997106;28;20449;-76
2023/10/26 15:17:33;;;;;;;1.70;0.90;;;15.00;83.20;;;;;;4996917;28;20454;-76
2023/10/26 15:20:00;;;;;;;1.40;0.80;;;14.90;83.20;;;;;;4996277;28;20448;-75
2023/10/26 15:22:27;;;;;;;1.60;1.10;;;14.80;82.30;;;;;;4996297;28;21028;-75
2023/10/26 15:24:53;;;;;;;1.77;1.00;;;14.80;82.60;;;;;;4996893;28;20457;-75
2023/10/26 15:27:20;;;;;;;3.00;1.10;;;14.90;82.40;;;;;;4996931;28;20456;-76
2023/10/26 15:29:48;;;;;;;1.93;1.07;;;14.80;82.20;;;;;;4996505;28;20477;-76
2023/10/26 15:32:17;;;;;;;1.80;0.90;;;14.80;82.50;;;;;;4997062;28;20465;-76
2023/10/26 15:34:45;;;;;;;1.77;0.90;;;14.80;82.50;;;;;;4996615;28;20445;-75
2023/10/26 15:37:12;;;;;;;3.80;1.50;;;14.80;81.70;;;;;;4996934;28;20449;-76
2023/10/26 15:39:41;;;;;;;1.87;1.27;;;14.70;82.00;;;;;;4996492;28;20446;-75
2023/10/26 15:42:08;;;;;;;2.13;1.10;;;14.80;82.60;;;;;;4996516;28;20517;-76
2023/10/26 15:44:34;;;;;;;1.90;0.90;;;14.80;81.70;;;;;;4995774;28;20939;-76
2023/10/26 15:47:04;;;;;;;2.60;1.27;;;14.70;81.30;;;;;;4996360;28;20453;-73
2023/10/26 15:49:31;;;;;;;1.97;1.10;;;14.80;82.10;;;;;;4995717;28;20477;-76
2023/10/26 15:51:57;;;;;;;1.70;0.97;;;14.60;81.10;;;;;;4995611;28;20910;-78
2023/10/26 15:54:24;;;;;;;1.63;1.10;;;14.60;82.20;;;;;;4995576;28;20939;-76
2023/10/26 15:56:51;;;;;;;2.20;1.47;;;14.50;82.20;;;;;;4995914;28;20452;-77
2023/10/26 15:59:17;;;;;;;1.70;1.10;;;14.50;83.20;;;;;;4996327;28;20441;-77
2023/10/26 16:01:44;;;;;;;2.50;1.50;;;14.50;82.10;;;;;;4996523;28;20481;-77
2023/10/26 16:04:12;;;;;;;2.90;1.47;;;14.40;82.50;;;;;;4996028;28;20441;-78
2023/10/26 16:06:39;;;;;;;2.83;1.50;;;14.40;82.40;;;;;;4995681;28;20440;-78
2023/10/26 16:09:05;;;;;;;1.70;1.30;;;14.40;81.80;;;;;;4995529;28;20453;-77
2023/10/26 16:11:32;;;;;;;2.13;1.23;;;14.40;82.60;;;;;;4995220;28;20464;-77
2023/10/26 16:13:59;;;;;;;1.60;1.10;;;14.30;82.60;;;;;;4995306;28;20449;-77
2023/10/26 16:16:25;;;;;;;2.10;0.90;;;14.30;83.00;;;;;;4995222;28;20457;-74
2023/10/26 16:18:52;;;;;;;2.53;1.40;;;14.40;83.00;;;;;;5002829;23;20868;-77
2023/10/26 16:21:20;;;;;;;2.23;1.10;;;14.40;82.60;;;;;;4995277;28;20468;-77
2023/10/26 16:23:47;;;;;;;1.97;1.30;;;14.50;82.20;;;;;;4995180;28;20449;-76
2023/10/26 16:26:13;;;;;;;3.00;1.47;;;14.40;81.90;;;;;;4995624;28;20451;-76
2023/10/26 16:28:40;;;;;;;2.33;1.10;;;14.40;82.20;;;;;;4994980;28;20457;-77
2023/10/26 16:31:07;;;;;;;4.57;1.67;;;14.40;82.60;;;;;;4994920;28;20484;-76
2023/10/26 16:33:36;;;;;;;2.40;1.33;;;14.50;82.60;;;;;;4994990;28;20957;-75
2023/10/26 16:36:03;;;;;;;3.23;1.33;;;14.50;82.40;;;;;;4995330;28;20449;-76
2023/10/26 16:38:31;;;;;;;1.70;1.00;;;14.50;82.60;;;;;;4994847;28;20448;-78
2023/10/26 16:40:59;;;;;;;3.50;1.40;;;14.50;82.30;;;;;;4994803;28;20441;-77
2023/10/26 16:43:25;;;;;;;2.10;1.27;;;14.60;82.10;;;;;;4994864;28;20453;-75
2023/10/26 16:45:51;;;;;;;2.40;1.20;;;14.60;81.70;;;;;;4994714;28;20448;-76
2023/10/26 16:48:20;;;;;;;5.17;1.30;;;14.70;82.00;;;;;;4994823;28;20210;-76
2023/10/26 16:50:46;;;;;;;2.80;1.20;;;14.60;81.60;;;;;;4994734;28;20489;-77